createdAt,value
2017-01-21T00:00:19.312Z,19.8
2017-01-21T00:01:19.733Z,19.8
2017-01-21T00:02:19.365Z,19.78
2017-01-21T00:03:18.994Z,19.74
2017-01-21T00:04:19.414Z,19.73
2017-01-21T00:05:19.832Z,19.74
2017-01-21T00:06:19.860Z,19.69
2017-01-21T00:07:19.493Z,19.74
2017-01-21T00:08:19.526Z,19.74
2017-01-21T00:09:19.142Z,19.66
2017-01-21T00:10:19.573Z,19.74
2017-01-21T00:11:19.588Z,19.65
2017-01-21T00:12:19.621Z,19.65
2017-01-21T00:13:19.645Z,19.69
2017-01-21T00:14:19.675Z,19.63
2017-01-21T00:15:20.095Z,19.59
2017-01-21T00:16:20.123Z,19.63
2017-01-21T00:17:19.748Z,19.59
2017-01-21T00:18:19.780Z,19.61
2017-01-21T00:19:20.201Z,19.5
2017-01-21T00:20:19.826Z,19.62
2017-01-21T00:21:19.859Z,19.59
2017-01-21T00:22:19.880Z,19.55
2017-01-21T00:23:20.296Z,19.43
2017-01-21T00:24:19.949Z,19.55
2017-01-21T00:25:19.558Z,19.47
2017-01-21T00:26:19.979Z,19.51
2017-01-21T00:27:20.016Z,19.5
2017-01-21T00:28:19.636Z,19.55
2017-01-21T00:29:20.053Z,19.56
2017-01-21T00:30:20.105Z,19.47
2017-01-21T00:31:20.107Z,19.5
2017-01-21T00:32:20.135Z,19.43
2017-01-21T00:33:20.156Z,19.44
2017-01-21T00:34:20.180Z,19.48
2017-01-21T00:35:19.817Z,19.47
2017-01-21T00:36:19.842Z,19.44
2017-01-21T00:37:19.870Z,19.43
2017-01-21T00:38:19.891Z,19.48
2017-01-21T00:39:20.312Z,19.46
2017-01-21T00:40:19.937Z,19.44
2017-01-21T00:41:19.970Z,19.46
2017-01-21T00:42:20.385Z,19.44
2017-01-21T00:43:20.810Z,19.4
2017-01-21T00:44:20.835Z,19.4
2017-01-21T00:45:20.078Z,19.37
2017-01-21T00:46:20.883Z,19.31
2017-01-21T00:47:20.517Z,19.37
2017-01-21T00:48:20.541Z,19.32
2017-01-21T00:49:20.961Z,19.39
2017-01-21T00:50:20.598Z,19.26
2017-01-21T00:51:20.626Z,19.33
2017-01-21T00:52:20.242Z,19.25
2017-01-21T00:53:20.663Z,19.29
2017-01-21T00:54:20.291Z,19.29
2017-01-21T00:55:20.716Z,19.25
2017-01-21T00:56:20.739Z,19.32
2017-01-21T00:57:20.770Z,19.19
2017-01-21T00:58:20.795Z,19.26
2017-01-21T00:59:21.240Z,19.26
2017-01-21T01:00:20.844Z,19.28
2017-01-21T01:01:20.482Z,19.25
2017-01-21T01:02:20.521Z,19.18
2017-01-21T01:03:20.922Z,19.16
2017-01-21T01:04:21.342Z,19.19
2017-01-21T01:05:20.571Z,19.19
2017-01-21T01:06:21.392Z,19.16
2017-01-21T01:07:21.020Z,19.14
2017-01-21T01:08:21.049Z,19.16
2017-01-21T01:09:21.074Z,19.19
2017-01-21T01:10:21.025Z,19.14
2017-01-21T01:11:21.123Z,19.26
2017-01-21T01:12:21.147Z,19.16
2017-01-21T01:13:20.808Z,19.18
2017-01-21T01:14:20.805Z,19.1
2017-01-21T01:15:21.614Z,19.19
2017-01-21T01:16:20.854Z,19.06
2017-01-21T01:17:20.879Z,19.06
2017-01-21T01:18:20.903Z,19.1
2017-01-21T01:19:21.336Z,19.04
2017-01-21T01:20:21.749Z,19.14
2017-01-21T01:21:21.378Z,19.13
2017-01-21T01:22:21.405Z,19.07
2017-01-21T01:23:21.031Z,19.08
2017-01-21T01:24:21.448Z,19.14
2017-01-21T01:25:21.472Z,19.07
2017-01-21T01:26:21.509Z,19.04
2017-01-21T01:27:21.529Z,19.08
2017-01-21T01:28:21.946Z,19.1
2017-01-21T01:29:21.575Z,19.18
2017-01-21T01:30:21.596Z,19.13
2017-01-21T01:31:21.634Z,19.1
2017-01-21T01:32:21.645Z,19
2017-01-21T01:33:22.079Z,19.11
2017-01-21T01:34:21.310Z,19
2017-01-21T01:35:21.723Z,18.99
2017-01-21T01:36:21.756Z,19.08
2017-01-21T01:37:22.181Z,19
2017-01-21T01:38:22.193Z,19.04
2017-01-21T01:39:21.835Z,19.07
2017-01-21T01:40:21.863Z,18.99
2017-01-21T01:41:22.273Z,19.02
2017-01-21T01:42:21.901Z,18.87
2017-01-21T01:43:21.934Z,18.99
2017-01-21T01:44:21.958Z,18.92
2017-01-21T01:45:21.587Z,18.92
2017-01-21T01:46:22.008Z,18.9
2017-01-21T01:47:21.636Z,18.92
2017-01-21T01:48:21.665Z,18.91
2017-01-21T01:49:22.085Z,18.92
2017-01-21T01:50:22.114Z,18.92
2017-01-21T01:51:21.734Z,18.91
2017-01-21T01:52:21.763Z,18.92
2017-01-21T01:53:22.580Z,18.88
2017-01-21T01:54:21.817Z,18.87
2017-01-21T01:55:21.834Z,18.94
2017-01-21T01:56:22.663Z,18.85
2017-01-21T01:57:22.684Z,18.84
2017-01-21T01:58:22.712Z,18.85
2017-01-21T01:59:21.932Z,18.85
2017-01-21T02:00:22.361Z,18.87
2017-01-21T02:01:21.986Z,18.9
2017-01-21T02:02:22.411Z,18.82
2017-01-21T02:03:22.436Z,18.84
2017-01-21T02:04:22.460Z,18.82
2017-01-21T02:05:22.881Z,18.81
2017-01-21T02:06:22.518Z,18.75
2017-01-21T02:07:22.939Z,18.88
2017-01-21T02:08:22.555Z,18.81
2017-01-21T02:09:22.600Z,18.81
2017-01-21T02:10:22.217Z,18.81
2017-01-21T02:11:22.243Z,18.75
2017-01-21T02:12:22.271Z,18.8
2017-01-21T02:13:22.720Z,18.85
2017-01-21T02:14:23.108Z,18.84
2017-01-21T02:15:22.733Z,18.76
2017-01-21T02:16:22.386Z,18.76
2017-01-21T02:17:22.390Z,18.87
2017-01-21T02:18:22.815Z,18.78
2017-01-21T02:19:22.444Z,18.78
2017-01-21T02:20:22.873Z,18.73
2017-01-21T02:21:23.309Z,18.69
2017-01-21T02:22:22.915Z,18.75
2017-01-21T02:23:22.947Z,18.73
2017-01-21T02:24:22.969Z,18.73
2017-01-21T02:25:22.996Z,18.75
2017-01-21T02:26:22.608Z,18.73
2017-01-21T02:27:23.466Z,18.69
2017-01-21T02:28:22.671Z,18.73
2017-01-21T02:29:23.088Z,18.73
2017-01-21T02:30:23.512Z,18.72
2017-01-21T02:31:23.140Z,18.73
2017-01-21T02:32:23.162Z,18.63
2017-01-21T02:33:22.801Z,18.66
2017-01-21T02:34:23.220Z,18.7
2017-01-21T02:35:23.244Z,18.69
2017-01-21T02:36:23.273Z,18.66
2017-01-21T02:37:23.293Z,18.69
2017-01-21T02:38:23.315Z,18.67
2017-01-21T02:39:23.335Z,18.65
2017-01-21T02:40:22.972Z,18.66
2017-01-21T02:41:22.992Z,18.58
2017-01-21T02:42:23.413Z,18.65
2017-01-21T02:43:23.838Z,18.57
2017-01-21T02:44:23.463Z,18.65
2017-01-21T02:45:23.889Z,18.62
2017-01-21T02:46:23.517Z,18.55
2017-01-21T02:47:23.945Z,18.65
2017-01-21T02:48:23.582Z,18.63
2017-01-21T02:49:23.195Z,18.55
2017-01-21T02:50:24.016Z,18.62
2017-01-21T02:51:24.049Z,18.65
2017-01-21T02:52:23.277Z,18.6
2017-01-21T02:53:23.696Z,18.62
2017-01-21T02:54:24.115Z,18.6
2017-01-21T02:55:23.735Z,18.62
2017-01-21T02:56:23.368Z,18.52
2017-01-21T02:57:23.793Z,18.48
2017-01-21T02:58:23.426Z,18.62
2017-01-21T02:59:24.239Z,18.47
2017-01-21T03:00:23.863Z,18.45
2017-01-21T03:01:24.292Z,18.45
2017-01-21T03:02:24.308Z,18.5
2017-01-21T03:03:23.942Z,18.48
2017-01-21T03:04:23.574Z,18.54
2017-01-21T03:05:24.391Z,18.52
2017-01-21T03:06:23.624Z,18.48
2017-01-21T03:07:24.076Z,18.47
2017-01-21T03:08:24.065Z,18.5
2017-01-21T03:09:24.094Z,18.54
2017-01-21T03:10:24.115Z,18.48
2017-01-21T03:11:23.747Z,18.51
2017-01-21T03:12:23.772Z,18.45
2017-01-21T03:13:24.201Z,18.48
2017-01-21T03:14:24.218Z,18.45
2017-01-21T03:15:24.639Z,18.41
2017-01-21T03:16:24.659Z,18.51
2017-01-21T03:17:24.292Z,18.44
2017-01-21T03:18:24.318Z,18.41
2017-01-21T03:19:23.945Z,18.44
2017-01-21T03:20:24.762Z,18.44
2017-01-21T03:21:24.387Z,18.37
2017-01-21T03:22:24.424Z,18.39
2017-01-21T03:23:24.444Z,18.39
2017-01-21T03:24:24.074Z,18.42
2017-01-21T03:25:24.494Z,18.42
2017-01-21T03:26:24.907Z,18.44
2017-01-21T03:27:24.944Z,18.37
2017-01-21T03:28:24.963Z,18.42
2017-01-21T03:29:24.189Z,18.37
2017-01-21T03:30:24.218Z,18.41
2017-01-21T03:31:24.247Z,18.39
2017-01-21T03:32:25.064Z,18.33
2017-01-21T03:33:24.692Z,18.37
2017-01-21T03:34:24.321Z,18.37
2017-01-21T03:35:24.734Z,18.35
2017-01-21T03:36:24.771Z,18.36
2017-01-21T03:37:24.795Z,18.32
2017-01-21T03:38:24.424Z,18.3
2017-01-21T03:39:24.837Z,18.29
2017-01-21T03:40:24.865Z,18.33
2017-01-21T03:41:24.890Z,18.32
2017-01-21T03:42:24.910Z,18.32
2017-01-21T03:43:24.936Z,18.33
2017-01-21T03:44:24.964Z,18.2
2017-01-21T03:45:24.989Z,18.26
2017-01-21T03:46:24.618Z,18.26
2017-01-21T03:47:25.045Z,18.23
2017-01-21T03:48:25.459Z,18.3
2017-01-21T03:49:25.488Z,18.23
2017-01-21T03:50:25.513Z,18.25
2017-01-21T03:51:25.133Z,18.21
2017-01-21T03:52:24.762Z,18.25
2017-01-21T03:53:24.791Z,18.2
2017-01-21T03:54:25.206Z,18.26
2017-01-21T03:55:24.841Z,18.18
2017-01-21T03:56:25.257Z,18.21
2017-01-21T03:57:25.290Z,18.23
2017-01-21T03:58:24.914Z,18.21
2017-01-21T03:59:24.935Z,18.23
2017-01-21T04:00:25.764Z,18.17
2017-01-21T04:01:24.993Z,18.17
2017-01-21T04:02:25.017Z,18.18
2017-01-21T04:03:25.038Z,18.2
2017-01-21T04:04:25.859Z,18.15
2017-01-21T04:05:25.480Z,18.17
2017-01-21T04:06:25.108Z,18.12
2017-01-21T04:07:25.533Z,18.25
2017-01-21T04:08:25.966Z,18.15
2017-01-21T04:09:25.202Z,18.1
2017-01-21T04:10:25.211Z,18.18
2017-01-21T04:11:25.637Z,18.11
2017-01-21T04:12:26.057Z,18.12
2017-01-21T04:13:25.686Z,18.21
2017-01-21T04:14:25.710Z,18.15
2017-01-21T04:15:25.339Z,18.11
2017-01-21T04:16:26.160Z,18.1
2017-01-21T04:17:26.176Z,18.12
2017-01-21T04:18:25.413Z,18.12
2017-01-21T04:19:25.438Z,18.14
2017-01-21T04:20:25.850Z,18.1
2017-01-21T04:21:25.487Z,18.14
2017-01-21T04:22:25.507Z,18.12
2017-01-21T04:23:25.924Z,18.11
2017-01-21T04:24:25.961Z,18.08
2017-01-21T04:25:25.983Z,18.12
2017-01-21T04:26:26.400Z,18.11
2017-01-21T04:27:26.420Z,18.11
2017-01-21T04:28:26.449Z,18.08
2017-01-21T04:29:26.077Z,17.99
2017-01-21T04:30:25.710Z,18
2017-01-21T04:31:26.519Z,18.02
2017-01-21T04:32:26.152Z,18.14
2017-01-21T04:33:26.176Z,18.03
2017-01-21T04:34:26.197Z,18.05
2017-01-21T04:35:26.621Z,18
2017-01-21T04:36:26.646Z,18.05
2017-01-21T04:37:26.275Z,18
2017-01-21T04:38:26.299Z,18.08
2017-01-21T04:39:26.716Z,18.1
2017-01-21T04:40:26.745Z,18.15
2017-01-21T04:41:26.378Z,18.07
2017-01-21T04:42:26.394Z,18.12
2017-01-21T04:43:26.819Z,18.07
2017-01-21T04:44:26.052Z,17.99
2017-01-21T04:45:26.471Z,18.1
2017-01-21T04:46:26.885Z,17.97
2017-01-21T04:47:26.526Z,18.02
2017-01-21T04:48:26.547Z,17.99
2017-01-21T04:49:26.576Z,17.99
2017-01-21T04:50:26.592Z,17.93
2017-01-21T04:51:26.213Z,17.97
2017-01-21T04:52:26.249Z,18.08
2017-01-21T04:53:26.678Z,17.97
2017-01-21T04:54:26.695Z,17.95
2017-01-21T04:55:26.320Z,17.93
2017-01-21T04:56:26.347Z,17.95
2017-01-21T04:57:27.165Z,17.93
2017-01-21T04:58:27.190Z,18
2017-01-21T04:59:26.414Z,17.97
2017-01-21T05:00:26.843Z,17.99
2017-01-21T05:01:26.856Z,17.95
2017-01-21T05:02:26.517Z,17.96
2017-01-21T05:03:27.314Z,17.97
2017-01-21T05:04:26.942Z,17.96
2017-01-21T05:05:27.356Z,17.93
2017-01-21T05:06:27.388Z,17.96
2017-01-21T05:07:26.616Z,17.9
2017-01-21T05:08:27.425Z,17.96
2017-01-21T05:09:27.063Z,17.96
2017-01-21T05:10:27.487Z,18.03
2017-01-21T05:11:27.119Z,17.97
2017-01-21T05:12:27.536Z,17.9
2017-01-21T05:13:27.165Z,17.99
2017-01-21T05:14:26.789Z,17.99
2017-01-21T05:15:26.814Z,17.96
2017-01-21T05:16:27.239Z,17.92
2017-01-21T05:17:27.660Z,17.93
2017-01-21T05:18:26.888Z,17.89
2017-01-21T05:19:26.914Z,17.81
2017-01-21T05:20:27.726Z,17.93
2017-01-21T05:21:27.754Z,17.95
2017-01-21T05:22:27.375Z,17.99
2017-01-21T05:23:27.012Z,17.95
2017-01-21T05:24:27.429Z,17.89
2017-01-21T05:25:27.060Z,17.95
2017-01-21T05:26:27.477Z,17.84
2017-01-21T05:27:27.110Z,17.99
2017-01-21T05:28:27.519Z,17.97
2017-01-21T05:29:27.960Z,17.9
2017-01-21T05:30:27.981Z,17.96
2017-01-21T05:31:27.605Z,17.99
2017-01-21T05:32:27.226Z,18.07
2017-01-21T05:33:28.051Z,17.97
2017-01-21T05:34:27.292Z,18.05
2017-01-21T05:35:27.698Z,18.12
2017-01-21T05:36:27.737Z,18
2017-01-21T05:37:27.358Z,18.1
2017-01-21T05:38:28.174Z,18.1
2017-01-21T05:39:27.407Z,18.11
2017-01-21T05:40:27.432Z,18.21
2017-01-21T05:41:27.453Z,18.18
2017-01-21T05:42:27.474Z,18.18
2017-01-21T05:43:27.501Z,18.25
2017-01-21T05:44:28.323Z,18.27
2017-01-21T05:45:27.553Z,18.26
2017-01-21T05:46:27.972Z,18.29
2017-01-21T05:47:27.601Z,18.41
2017-01-21T05:48:27.626Z,18.3
2017-01-21T05:49:28.046Z,18.39
2017-01-21T05:50:27.671Z,18.35
2017-01-21T05:51:28.096Z,18.44
2017-01-21T05:52:28.505Z,18.42
2017-01-21T05:53:28.541Z,18.52
2017-01-21T05:54:28.574Z,18.51
2017-01-21T05:55:27.795Z,18.48
2017-01-21T05:56:28.224Z,18.51
2017-01-21T05:57:28.240Z,18.45
2017-01-21T05:58:28.277Z,18.5
2017-01-21T05:59:28.294Z,18.62
2017-01-21T06:00:28.319Z,18.6
2017-01-21T06:01:28.335Z,18.63
2017-01-21T06:02:28.759Z,18.66
2017-01-21T06:03:28.400Z,18.66
2017-01-21T06:04:28.413Z,18.58
2017-01-21T06:05:28.830Z,18.58
2017-01-21T06:06:28.467Z,18.72
2017-01-21T06:07:28.883Z,18.73
2017-01-21T06:08:28.124Z,18.7
2017-01-21T06:09:28.149Z,18.7
2017-01-21T06:10:28.161Z,18.76
2017-01-21T06:11:28.189Z,18.76
2017-01-21T06:12:28.610Z,18.82
2017-01-21T06:13:28.240Z,18.8
2017-01-21T06:14:29.052Z,18.9
2017-01-21T06:15:28.688Z,18.84
2017-01-21T06:16:29.110Z,18.8
2017-01-21T06:17:29.139Z,18.91
2017-01-21T06:18:29.159Z,18.84
2017-01-21T06:19:29.179Z,18.87
2017-01-21T06:20:28.412Z,18.87
2017-01-21T06:21:28.841Z,18.94
2017-01-21T06:22:28.466Z,18.91
2017-01-21T06:23:28.886Z,18.95
2017-01-21T06:24:28.516Z,18.9
2017-01-21T06:25:28.936Z,19.06
2017-01-21T06:26:28.956Z,19.02
2017-01-21T06:27:29.385Z,18.94
2017-01-21T06:28:29.398Z,19.04
2017-01-21T06:29:29.427Z,19.02
2017-01-21T06:30:29.063Z,18.99
2017-01-21T06:31:28.692Z,18.98
2017-01-21T06:32:29.113Z,19.13
2017-01-21T06:33:29.137Z,19.1
2017-01-21T06:34:28.771Z,19.08
2017-01-21T06:35:29.183Z,19.08
2017-01-21T06:36:29.208Z,19.11
2017-01-21T06:37:29.236Z,19.11
2017-01-21T06:38:28.865Z,19.11
2017-01-21T06:39:29.282Z,19.07
2017-01-21T06:40:28.910Z,19.08
2017-01-21T06:41:29.731Z,19.19
2017-01-21T06:42:29.347Z,19.19
2017-01-21T06:43:29.380Z,19.16
2017-01-21T06:44:29.797Z,19.07
2017-01-21T06:45:29.066Z,19.19
2017-01-21T06:46:29.454Z,19.04
2017-01-21T06:47:29.483Z,19.13
2017-01-21T06:48:29.512Z,19.16
2017-01-21T06:49:29.140Z,19.13
2017-01-21T06:50:29.962Z,19.1
2017-01-21T06:51:29.990Z,19.06
2017-01-21T06:52:29.219Z,19.08
2017-01-21T06:53:30.032Z,19.04
2017-01-21T06:54:29.661Z,19.14
2017-01-21T06:55:29.684Z,19.11
2017-01-21T06:56:29.310Z,19.18
2017-01-21T06:57:29.340Z,19.06
2017-01-21T06:58:29.771Z,19.16
2017-01-21T06:59:29.784Z,19.16
2017-01-21T07:00:29.409Z,19.13
2017-01-21T07:01:29.433Z,19.19
2017-01-21T07:02:29.874Z,19.1
2017-01-21T07:03:30.282Z,19.11
2017-01-21T07:04:29.911Z,19.07
2017-01-21T07:05:29.537Z,19.13
2017-01-21T07:06:29.564Z,19.06
2017-01-21T07:07:29.985Z,19.07
2017-01-21T07:08:29.610Z,19.19
2017-01-21T07:09:29.639Z,19.11
2017-01-21T07:10:30.055Z,19.18
2017-01-21T07:11:30.088Z,19.22
2017-01-21T07:12:29.713Z,19.19
2017-01-21T07:13:29.733Z,19.18
2017-01-21T07:14:29.762Z,19.13
2017-01-21T07:15:30.187Z,19.18
2017-01-21T07:16:30.211Z,19.19
2017-01-21T07:17:29.831Z,19.18
2017-01-21T07:18:30.265Z,19.19
2017-01-21T07:19:30.286Z,19.19
2017-01-21T07:20:30.359Z,19.16
2017-01-21T07:21:30.723Z,19.19
2017-01-21T07:22:29.959Z,19.23
2017-01-21T07:23:30.384Z,19.18
2017-01-21T07:24:30.013Z,19.16
2017-01-21T07:25:30.434Z,19.16
2017-01-21T07:26:30.458Z,19.28
2017-01-21T07:27:30.483Z,19.22
2017-01-21T07:28:30.505Z,19.18
2017-01-21T07:29:30.532Z,19.19
2017-01-21T07:30:30.557Z,19.22
2017-01-21T07:31:30.182Z,19.18
2017-01-21T07:32:30.619Z,19.23
2017-01-21T07:33:30.635Z,19.25
2017-01-21T07:34:30.664Z,19.18
2017-01-21T07:35:30.684Z,19.13
2017-01-21T07:36:30.710Z,19.18
2017-01-21T07:37:30.735Z,19.23
2017-01-21T07:38:31.155Z,19.11
2017-01-21T07:39:31.184Z,19.26
2017-01-21T07:40:30.823Z,19.26
2017-01-21T07:41:30.438Z,19.26
2017-01-21T07:42:30.866Z,19.26
2017-01-21T07:43:30.891Z,19.19
2017-01-21T07:44:30.520Z,19.14
2017-01-21T07:45:30.936Z,19.25
2017-01-21T07:46:30.980Z,19.13
2017-01-21T07:47:31.385Z,19.14
2017-01-21T07:48:31.406Z,19.18
2017-01-21T07:49:31.035Z,19.16
2017-01-21T07:50:30.687Z,19.1
2017-01-21T07:51:31.084Z,19.16
2017-01-21T07:52:31.105Z,19.18
2017-01-21T07:53:31.538Z,19.26
2017-01-21T07:54:31.163Z,19.1
2017-01-21T07:55:31.187Z,19.11
2017-01-21T07:56:31.600Z,19.1
2017-01-21T07:57:31.248Z,19.21
2017-01-21T07:58:30.865Z,19.18
2017-01-21T07:59:31.286Z,19.08
2017-01-21T08:00:30.942Z,19.21
2017-01-21T08:01:30.947Z,19.11
2017-01-21T08:02:30.960Z,19.14
2017-01-21T08:03:31.380Z,19.08
2017-01-21T08:04:31.809Z,19.18
2017-01-21T08:05:31.440Z,19.14
2017-01-21T08:06:31.858Z,19.11
2017-01-21T08:07:31.090Z,19.11
2017-01-21T08:08:31.515Z,19.11
2017-01-21T08:09:31.143Z,19.18
2017-01-21T08:10:31.560Z,19.18
2017-01-21T08:11:31.977Z,19.18
2017-01-21T08:12:31.606Z,19.14
2017-01-21T08:13:32.038Z,19.07
2017-01-21T08:14:32.054Z,19.13
2017-01-21T08:15:31.291Z,18.98
2017-01-21T08:16:31.712Z,19.14
2017-01-21T08:17:31.728Z,18.99
2017-01-21T08:18:31.765Z,19
2017-01-21T08:19:32.182Z,19
2017-01-21T08:20:31.417Z,19
2017-01-21T08:21:31.435Z,19
2017-01-21T08:22:32.260Z,19
2017-01-21T08:23:32.280Z,18.92
2017-01-21T08:24:31.914Z,19
2017-01-21T08:25:31.941Z,18.88
2017-01-21T08:26:31.958Z,18.94
2017-01-21T08:27:31.982Z,18.9
2017-01-21T08:28:32.007Z,18.87
2017-01-21T08:29:32.036Z,18.94
2017-01-21T08:30:32.063Z,19
2017-01-21T08:31:32.080Z,19.07
2017-01-21T08:32:32.118Z,19.16
2017-01-21T08:33:32.529Z,19.37
2017-01-21T08:34:31.759Z,19.41
2017-01-21T08:35:31.791Z,19.5
2017-01-21T08:36:31.813Z,19.48
2017-01-21T08:37:32.629Z,19.43
2017-01-21T08:38:32.255Z,19.46
2017-01-21T08:39:32.698Z,19.46
2017-01-21T08:40:32.707Z,19.44
2017-01-21T08:41:32.739Z,19.43
2017-01-21T08:42:31.959Z,19.43
2017-01-21T08:43:31.980Z,19.41
2017-01-21T08:44:32.013Z,19.41
2017-01-21T08:45:32.843Z,19.41
2017-01-21T08:46:32.458Z,19.4
2017-01-21T08:47:32.879Z,19.36
2017-01-21T08:48:32.528Z,19.37
2017-01-21T08:49:32.540Z,19.4
2017-01-21T08:50:32.561Z,19.33
2017-01-21T08:51:32.189Z,19.37
2017-01-21T08:52:32.618Z,19.39
2017-01-21T08:53:32.635Z,19.36
2017-01-21T08:54:32.659Z,19.41
2017-01-21T08:55:32.688Z,19.33
2017-01-21T08:56:33.105Z,19.37
2017-01-21T08:57:32.741Z,19.37
2017-01-21T08:58:32.362Z,19.36
2017-01-21T08:59:33.190Z,19.44
2017-01-21T09:00:32.415Z,19.36
2017-01-21T09:01:33.229Z,19.4
2017-01-21T09:02:33.261Z,19.44
2017-01-21T09:03:32.494Z,19.31
2017-01-21T09:04:33.311Z,19.41
2017-01-21T09:05:32.540Z,19.39
2017-01-21T09:06:32.956Z,19.37
2017-01-21T09:07:33.381Z,19.39
2017-01-21T09:08:33.005Z,19.4
2017-01-21T09:09:33.439Z,19.43
2017-01-21T09:10:33.459Z,19.39
2017-01-21T09:11:33.088Z,19.36
2017-01-21T09:12:33.513Z,19.36
2017-01-21T09:13:33.138Z,19.41
2017-01-21T09:14:33.558Z,19.31
2017-01-21T09:15:33.587Z,19.4
2017-01-21T09:16:33.216Z,19.39
2017-01-21T09:17:33.634Z,19.37
2017-01-21T09:18:32.869Z,19.39
2017-01-21T09:19:32.898Z,19.4
2017-01-21T09:20:33.710Z,19.4
2017-01-21T09:21:33.331Z,19.48
2017-01-21T09:22:32.975Z,19.4
2017-01-21T09:23:33.784Z,19.41
2017-01-21T09:24:33.809Z,19.47
2017-01-21T09:25:48.346Z,19.44
2017-01-21T09:26:33.075Z,19.46
2017-01-21T09:27:33.488Z,19.51
2017-01-21T09:28:33.916Z,19.58
2017-01-21T09:29:33.541Z,19.51
2017-01-21T09:30:33.557Z,19.55
2017-01-21T09:31:33.595Z,19.51
2017-01-21T09:32:34.014Z,19.47
2017-01-21T09:33:33.639Z,19.63
2017-01-21T09:34:33.292Z,19.62
2017-01-21T09:35:34.093Z,19.74
2017-01-21T09:36:33.717Z,19.63
2017-01-21T09:37:33.349Z,19.78
2017-01-21T09:38:34.162Z,19.8
2017-01-21T09:39:33.403Z,19.84
2017-01-21T09:40:33.811Z,19.87
2017-01-21T09:41:34.240Z,19.94
2017-01-21T09:42:33.469Z,19.98
2017-01-21T09:43:33.889Z,19.99
2017-01-21T09:44:33.912Z,20.05
2017-01-21T09:45:33.938Z,20.06
2017-01-21T09:46:33.571Z,20.1
2017-01-21T09:47:33.995Z,20.11
2017-01-21T09:48:33.620Z,20.16
2017-01-21T09:49:34.438Z,20.32
2017-01-21T09:50:34.093Z,20.29
2017-01-21T09:51:34.477Z,20.31
2017-01-21T09:52:34.511Z,20.35
2017-01-21T09:53:34.535Z,20.38
2017-01-21T09:54:33.775Z,20.41
2017-01-21T09:55:34.584Z,20.42
2017-01-21T09:56:34.221Z,20.43
2017-01-21T09:57:34.641Z,20.57
2017-01-21T09:58:33.879Z,20.59
2017-01-21T09:59:34.690Z,20.62
2017-01-21T10:00:34.731Z,20.58
2017-01-21T10:01:34.347Z,20.61
2017-01-21T10:02:33.976Z,20.61
2017-01-21T10:03:34.792Z,20.66
2017-01-21T10:04:34.030Z,20.61
2017-01-21T10:05:34.054Z,20.61
2017-01-21T10:06:34.475Z,20.66
2017-01-21T10:07:34.891Z,20.61
2017-01-21T10:08:34.535Z,20.66
2017-01-21T10:09:34.552Z,20.64
2017-01-21T10:10:34.963Z,20.64
2017-01-21T10:11:34.601Z,20.61
2017-01-21T10:12:34.221Z,20.58
2017-01-21T10:13:34.646Z,20.54
2017-01-21T10:14:34.286Z,20.59
2017-01-21T10:15:34.703Z,20.57
2017-01-21T10:16:34.333Z,20.62
2017-01-21T10:17:34.755Z,20.61
2017-01-21T10:18:34.781Z,20.58
2017-01-21T10:19:34.801Z,20.59
2017-01-21T10:20:34.432Z,20.67
2017-01-21T10:21:34.463Z,20.59
2017-01-21T10:22:34.879Z,20.64
2017-01-21T10:23:34.925Z,20.62
2017-01-21T10:24:34.934Z,20.64
2017-01-21T10:25:35.422Z,20.61
2017-01-21T10:26:34.991Z,20.61
2017-01-21T10:27:35.004Z,20.74
2017-01-21T10:28:34.640Z,20.62
2017-01-21T10:29:35.065Z,20.69
2017-01-21T10:30:34.694Z,20.76
2017-01-21T10:31:35.110Z,20.79
2017-01-21T10:32:35.143Z,20.74
2017-01-21T10:33:35.168Z,20.7
2017-01-21T10:34:35.193Z,20.72
2017-01-21T10:35:35.610Z,20.79
2017-01-21T10:36:35.635Z,20.85
2017-01-21T10:37:35.280Z,20.76
2017-01-21T10:38:35.292Z,20.8
2017-01-21T10:39:34.929Z,20.77
2017-01-21T10:40:35.389Z,20.8
2017-01-21T10:41:35.410Z,20.91
2017-01-21T10:42:35.007Z,20.92
2017-01-21T10:43:35.832Z,20.74
2017-01-21T10:44:35.876Z,20.88
2017-01-21T10:45:35.077Z,20.91
2017-01-21T10:46:35.106Z,20.84
2017-01-21T10:47:35.962Z,20.91
2017-01-21T10:48:35.556Z,20.85
2017-01-21T10:49:35.576Z,20.87
2017-01-21T10:50:35.604Z,20.76
2017-01-21T10:51:35.635Z,20.84
2017-01-21T10:52:35.667Z,20.88
2017-01-21T10:53:36.103Z,20.77
2017-01-21T10:54:35.712Z,20.82
2017-01-21T10:55:35.736Z,20.89
2017-01-21T10:56:35.765Z,20.87
2017-01-21T10:57:35.798Z,20.73
2017-01-21T10:58:35.820Z,20.76
2017-01-21T10:59:35.444Z,20.82
2017-01-21T11:00:36.269Z,20.74
2017-01-21T11:01:36.290Z,20.77
2017-01-21T11:02:36.314Z,20.74
2017-01-21T11:03:36.344Z,20.74
2017-01-21T11:04:35.577Z,20.73
2017-01-21T11:05:35.613Z,20.64
2017-01-21T11:06:36.031Z,20.61
2017-01-21T11:07:36.055Z,20.61
2017-01-21T11:08:36.472Z,20.66
2017-01-21T11:09:36.106Z,20.66
2017-01-21T11:10:36.154Z,20.64
2017-01-21T11:11:36.546Z,20.67
2017-01-21T11:12:36.179Z,20.55
2017-01-21T11:13:35.808Z,20.66
2017-01-21T11:14:35.838Z,20.59
2017-01-21T11:15:36.663Z,20.57
2017-01-21T11:16:36.323Z,20.57
2017-01-21T11:17:36.312Z,20.58
2017-01-21T11:18:36.341Z,20.54
2017-01-21T11:19:36.758Z,20.54
2017-01-21T11:20:36.390Z,20.51
2017-01-21T11:21:36.816Z,20.41
2017-01-21T11:22:36.448Z,20.54
2017-01-21T11:23:36.477Z,20.47
2017-01-21T11:24:36.894Z,20.51
2017-01-21T11:25:36.528Z,20.5
2017-01-21T11:26:36.948Z,20.52
2017-01-21T11:27:36.973Z,20.51
2017-01-21T11:28:36.598Z,20.52
2017-01-21T11:29:37.050Z,20.59
2017-01-21T11:30:37.051Z,20.58
2017-01-21T11:31:37.072Z,20.61
2017-01-21T11:32:36.721Z,20.58
2017-01-21T11:33:37.130Z,20.62
2017-01-21T11:34:36.756Z,20.62
2017-01-21T11:35:36.778Z,20.7
2017-01-21T11:36:36.417Z,20.64
2017-01-21T11:37:36.442Z,20.79
2017-01-21T11:38:37.263Z,20.76
2017-01-21T11:39:37.283Z,20.79
2017-01-21T11:40:37.317Z,20.74
2017-01-21T11:41:36.550Z,20.67
2017-01-21T11:42:36.574Z,20.84
2017-01-21T11:43:37.403Z,20.82
2017-01-21T11:44:36.624Z,20.88
2017-01-21T11:45:37.449Z,20.88
2017-01-21T11:46:37.078Z,20.89
2017-01-21T11:47:37.103Z,20.85
2017-01-21T11:48:37.528Z,20.98
2017-01-21T11:49:36.755Z,20.89
2017-01-21T11:50:37.573Z,20.89
2017-01-21T11:51:37.206Z,20.99
2017-01-21T11:52:37.231Z,20.98
2017-01-21T11:53:36.860Z,20.98
2017-01-21T11:54:36.892Z,20.98
2017-01-21T11:55:36.913Z,20.99
2017-01-21T11:56:37.338Z,21.04
2017-01-21T11:57:37.367Z,20.95
2017-01-21T11:58:37.396Z,20.95
2017-01-21T11:59:37.420Z,20.98
2017-01-21T12:00:37.089Z,20.94
2017-01-21T12:01:37.867Z,20.94
2017-01-21T12:02:37.504Z,21.01
2017-01-21T12:03:37.915Z,20.94
2017-01-21T12:04:37.556Z,21.01
2017-01-21T12:05:37.577Z,20.99
2017-01-21T12:06:37.206Z,20.95
2017-01-21T12:07:37.639Z,20.97
2017-01-21T12:08:37.256Z,20.92
2017-01-21T12:09:37.289Z,20.99
2017-01-21T12:10:37.705Z,20.92
2017-01-21T12:11:37.342Z,20.98
2017-01-21T12:12:37.363Z,20.94
2017-01-21T12:13:38.180Z,20.95
2017-01-21T12:14:37.817Z,20.94
2017-01-21T12:15:38.238Z,20.97
2017-01-21T12:16:38.270Z,20.99
2017-01-21T12:17:37.895Z,21.03
2017-01-21T12:18:37.923Z,20.94
2017-01-21T12:19:37.949Z,20.97
2017-01-21T12:20:37.970Z,20.94
2017-01-21T12:21:38.000Z,20.88
2017-01-21T12:22:38.020Z,20.98
2017-01-21T12:23:37.652Z,20.98
2017-01-21T12:24:38.477Z,20.91
2017-01-21T12:25:38.498Z,20.87
2017-01-21T12:26:38.531Z,20.92
2017-01-21T12:27:38.152Z,20.88
2017-01-21T12:28:38.584Z,20.84
2017-01-21T12:29:37.814Z,20.87
2017-01-21T12:30:38.626Z,20.76
2017-01-21T12:31:37.875Z,20.87
2017-01-21T12:32:38.688Z,20.79
2017-01-21T12:33:37.913Z,20.76
2017-01-21T12:34:37.950Z,20.84
2017-01-21T12:35:38.395Z,20.74
2017-01-21T12:36:38.396Z,20.67
2017-01-21T12:37:38.820Z,20.76
2017-01-21T12:38:38.867Z,20.62
2017-01-21T12:39:38.469Z,20.66
2017-01-21T12:40:38.107Z,20.67
2017-01-21T12:41:38.532Z,20.62
2017-01-21T12:42:38.152Z,20.67
2017-01-21T12:43:38.576Z,20.66
2017-01-21T12:44:39.014Z,20.57
2017-01-21T12:45:38.639Z,20.58
2017-01-21T12:46:38.668Z,20.55
2017-01-21T12:47:39.081Z,20.59
2017-01-21T12:48:38.717Z,20.54
2017-01-21T12:49:38.743Z,20.58
2017-01-21T12:50:38.771Z,20.43
2017-01-21T12:51:39.192Z,20.51
2017-01-21T12:52:38.421Z,20.52
2017-01-21T12:53:38.458Z,20.51
2017-01-21T12:54:38.474Z,20.38
2017-01-21T12:55:38.893Z,20.38
2017-01-21T12:56:38.916Z,20.38